sensor_id;sensor_type;location;lat;lon;timestamp;P1;durP1;ratioP1;P2;durP2;ratioP2
79460;SDS011;68929;42.666;23.324;2023-05-10T00:01:39;4.22;;;3.92;;
79460;SDS011;68929;42.666;23.324;2023-05-10T00:04:05;5.65;;;5.18;;
79460;SDS011;68929;42.666;23.324;2023-05-10T00:06:30;5.82;;;5.13;;
79460;SDS011;68929;42.666;23.324;2023-05-10T00:08:56;5.68;;;5.28;;
79460;SDS011;68929;42.666;23.324;2023-05-10T00:11:22;5.68;;;5.18;;
79460;SDS011;68929;42.666;23.324;2023-05-10T00:13:47;5.43;;;4.93;;
79460;SDS011;68929;42.666;23.324;2023-05-10T00:16:12;5.57;;;5.05;;
79460;SDS011;68929;42.666;23.324;2023-05-10T00:18:38;4.85;;;4.35;;
79460;SDS011;68929;42.666;23.324;2023-05-10T00:21:04;5.32;;;4.90;;
79460;SDS011;68929;42.666;23.324;2023-05-10T00:23:30;5.50;;;5.00;;
79460;SDS011;68929;42.666;23.324;2023-05-10T00:25:56;6.22;;;5.63;;
79460;SDS011;68929;42.666;23.324;2023-05-10T00:28:21;6.50;;;5.88;;
79460;SDS011;68929;42.666;23.324;2023-05-10T00:30:47;6.22;;;5.70;;
79460;SDS011;68929;42.666;23.324;2023-05-10T00:33:12;7.80;;;6.28;;
79460;SDS011;68929;42.666;23.324;2023-05-10T00:35:38;6.75;;;6.10;;
79460;SDS011;68929;42.666;23.324;2023-05-10T00:38:03;6.00;;;5.50;;
79460;SDS011;68929;42.666;23.324;2023-05-10T00:40:29;7.50;;;6.80;;
79460;SDS011;68929;42.666;23.324;2023-05-10T00:42:55;6.68;;;6.07;;
79460;SDS011;68929;42.666;23.324;2023-05-10T00:45:21;6.53;;;5.88;;
79460;SDS011;68929;42.666;23.324;2023-05-10T00:47:47;7.30;;;6.60;;
79460;SDS011;68929;42.666;23.324;2023-05-10T00:50:13;8.40;;;7.70;;
79460;SDS011;68929;42.666;23.324;2023-05-10T00:52:39;6.68;;;5.88;;
79460;SDS011;68929;42.666;23.324;2023-05-10T00:55:05;6.85;;;6.20;;
79460;SDS011;68929;42.666;23.324;2023-05-10T00:57:32;7.25;;;6.65;;
79460;SDS011;68929;42.666;23.324;2023-05-10T00:59:57;6.95;;;6.35;;
79460;SDS011;68929;42.666;23.324;2023-05-10T01:02:24;7.15;;;6.45;;
79460;SDS011;68929;42.666;23.324;2023-05-10T01:04:49;7.22;;;6.60;;
79460;SDS011;68929;42.666;23.324;2023-05-10T01:07:16;9.18;;;8.10;;
79460;SDS011;68929;42.666;23.324;2023-05-10T01:09:42;8.77;;;7.05;;
79460;SDS011;68929;42.666;23.324;2023-05-10T01:12:07;8.00;;;7.30;;
79460;SDS011;68929;42.666;23.324;2023-05-10T01:14:33;7.13;;;6.35;;
79460;SDS011;68929;42.666;23.324;2023-05-10T01:17:01;6.82;;;6.25;;
79460;SDS011;68929;42.666;23.324;2023-05-10T01:19:28;6.47;;;5.85;;
79460;SDS011;68929;42.666;23.324;2023-05-10T01:35:43;6.97;;;5.85;;
79460;SDS011;68929;42.666;23.324;2023-05-10T01:38:18;6.90;;;6.40;;
79460;SDS011;68929;42.666;23.324;2023-05-10T01:46:58;6.90;;;5.85;;
79460;SDS011;68929;42.666;23.324;2023-05-10T01:49:30;5.78;;;5.18;;
79460;SDS011;68929;42.666;23.324;2023-05-10T01:52:00;6.75;;;6.18;;
79460;SDS011;68929;42.666;23.324;2023-05-10T01:54:32;6.95;;;5.82;;
79460;SDS011;68929;42.666;23.324;2023-05-10T01:57:03;6.18;;;5.68;;
79460;SDS011;68929;42.666;23.324;2023-05-10T01:59:34;6.95;;;5.68;;
79460;SDS011;68929;42.666;23.324;2023-05-10T02:02:01;6.15;;;5.40;;
79460;SDS011;68929;42.666;23.324;2023-05-10T02:04:28;6.70;;;6.10;;
79460;SDS011;68929;42.666;23.324;2023-05-10T02:06:54;6.57;;;5.93;;
79460;SDS011;68929;42.666;23.324;2023-05-10T02:09:20;5.85;;;5.35;;
79460;SDS011;68929;42.666;23.324;2023-05-10T02:11:47;9.73;;;5.40;;
79460;SDS011;68929;42.666;23.324;2023-05-10T02:14:14;6.70;;;5.22;;
79460;SDS011;68929;42.666;23.324;2023-05-10T02:16:41;6.22;;;5.72;;
79460;SDS011;68929;42.666;23.324;2023-05-10T02:19:09;5.85;;;5.22;;
79460;SDS011;68929;42.666;23.324;2023-05-10T02:21:37;5.47;;;4.97;;
79460;SDS011;68929;42.666;23.324;2023-05-10T02:24:04;5.75;;;5.22;;
79460;SDS011;68929;42.666;23.324;2023-05-10T02:26:31;6.47;;;5.85;;
79460;SDS011;68929;42.666;23.324;2023-05-10T02:28:58;7.15;;;5.80;;
79460;SDS011;68929;42.666;23.324;2023-05-10T02:31:28;7.20;;;6.10;;
79460;SDS011;68929;42.666;23.324;2023-05-10T02:33:55;7.03;;;5.50;;
79460;SDS011;68929;42.666;23.324;2023-05-10T02:36:23;10.35;;;5.85;;
79460;SDS011;68929;42.666;23.324;2023-05-10T02:38:50;6.82;;;5.28;;
79460;SDS011;68929;42.666;23.324;2023-05-10T02:41:17;6.35;;;5.75;;
79460;SDS011;68929;42.666;23.324;2023-05-10T02:43:47;8.32;;;5.10;;
79460;SDS011;68929;42.666;23.324;2023-05-10T02:46:16;9.35;;;6.65;;
79460;SDS011;68929;42.666;23.324;2023-05-10T02:48:42;7.25;;;6.13;;
79460;SDS011;68929;42.666;23.324;2023-05-10T02:51:07;6.60;;;5.90;;
79460;SDS011;68929;42.666;23.324;2023-05-10T02:53:35;7.88;;;6.22;;
79460;SDS011;68929;42.666;23.324;2023-05-10T02:56:09;7.60;;;6.15;;
79460;SDS011;68929;42.666;23.324;2023-05-10T02:58:39;6.95;;;6.25;;
79460;SDS011;68929;42.666;23.324;2023-05-10T03:01:05;7.40;;;6.50;;
79460;SDS011;68929;42.666;23.324;2023-05-10T03:03:32;9.40;;;7.15;;
79460;SDS011;68929;42.666;23.324;2023-05-10T03:05:58;8.50;;;7.70;;
79460;SDS011;68929;42.666;23.324;2023-05-10T03:08:23;6.55;;;5.88;;
79460;SDS011;68929;42.666;23.324;2023-05-10T03:11:01;7.53;;;6.72;;
79460;SDS011;68929;42.666;23.324;2023-05-10T03:13:41;7.38;;;6.25;;
79460;SDS011;68929;42.666;23.324;2023-05-10T03:16:15;7.00;;;6.03;;
79460;SDS011;68929;42.666;23.324;2023-05-10T03:21:22;7.50;;;6.13;;
79460;SDS011;68929;42.666;23.324;2023-05-10T03:23:59;7.15;;;6.45;;
79460;SDS011;68929;42.666;23.324;2023-05-10T03:26:31;6.60;;;5.90;;
79460;SDS011;68929;42.666;23.324;2023-05-10T03:28:58;8.95;;;5.97;;
79460;SDS011;68929;42.666;23.324;2023-05-10T03:31:24;6.78;;;5.38;;
79460;SDS011;68929;42.666;23.324;2023-05-10T03:33:51;7.05;;;6.00;;
79460;SDS011;68929;42.666;23.324;2023-05-10T03:36:17;6.25;;;5.65;;
79460;SDS011;68929;42.666;23.324;2023-05-10T03:38:43;6.63;;;5.85;;
79460;SDS011;68929;42.666;23.324;2023-05-10T03:41:09;7.03;;;6.00;;
79460;SDS011;68929;42.666;23.324;2023-05-10T03:43:34;6.32;;;5.53;;
79460;SDS011;68929;42.666;23.324;2023-05-10T03:46:03;10.43;;;5.82;;
79460;SDS011;68929;42.666;23.324;2023-05-10T03:48:28;6.40;;;5.47;;
79460;SDS011;68929;42.666;23.324;2023-05-10T03:50:57;7.07;;;5.80;;
79460;SDS011;68929;42.666;23.324;2023-05-10T03:53:22;6.63;;;5.55;;
79460;SDS011;68929;42.666;23.324;2023-05-10T03:55:48;6.13;;;5.53;;
79460;SDS011;68929;42.666;23.324;2023-05-10T03:58:14;6.18;;;5.43;;
79460;SDS011;68929;42.666;23.324;2023-05-10T04:00:40;7.72;;;5.32;;
79460;SDS011;68929;42.666;23.324;2023-05-10T04:03:09;7.80;;;6.10;;
79460;SDS011;68929;42.666;23.324;2023-05-10T04:05:34;6.78;;;5.60;;
79460;SDS011;68929;42.666;23.324;2023-05-10T04:08:00;8.20;;;5.00;;
79460;SDS011;68929;42.666;23.324;2023-05-10T04:10:26;8.35;;;6.00;;
79460;SDS011;68929;42.666;23.324;2023-05-10T04:12:51;6.05;;;5.45;;
79460;SDS011;68929;42.666;23.324;2023-05-10T04:15:17;6.60;;;5.85;;
79460;SDS011;68929;42.666;23.324;2023-05-10T04:17:42;6.25;;;5.65;;
79460;SDS011;68929;42.666;23.324;2023-05-10T04:20:08;5.50;;;5.00;;
79460;SDS011;68929;42.666;23.324;2023-05-10T04:22:33;5.88;;;4.90;;
79460;SDS011;68929;42.666;23.324;2023-05-10T04:24:59;6.22;;;5.00;;
79460;SDS011;68929;42.666;23.324;2023-05-10T04:27:24;10.95;;;5.60;;
79460;SDS011;68929;42.666;23.324;2023-05-10T04:29:50;5.95;;;5.35;;
79460;SDS011;68929;42.666;23.324;2023-05-10T04:32:15;6.00;;;5.40;;
79460;SDS011;68929;42.666;23.324;2023-05-10T04:34:42;6.75;;;5.47;;
79460;SDS011;68929;42.666;23.324;2023-05-10T04:37:08;7.55;;;5.40;;
79460;SDS011;68929;42.666;23.324;2023-05-10T04:39:34;6.75;;;6.15;;
79460;SDS011;68929;42.666;23.324;2023-05-10T04:42:00;7.65;;;5.45;;
79460;SDS011;68929;42.666;23.324;2023-05-10T04:44:27;8.18;;;5.47;;
79460;SDS011;68929;42.666;23.324;2023-05-10T04:46:53;6.63;;;5.30;;
79460;SDS011;68929;42.666;23.324;2023-05-10T04:49:18;10.18;;;5.47;;
79460;SDS011;68929;42.666;23.324;2023-05-10T04:51:44;6.88;;;6.20;;
79460;SDS011;68929;42.666;23.324;2023-05-10T04:54:09;6.97;;;6.30;;
79460;SDS011;68929;42.666;23.324;2023-05-10T04:56:37;6.28;;;5.63;;
79460;SDS011;68929;42.666;23.324;2023-05-10T04:59:07;6.57;;;5.88;;
79460;SDS011;68929;42.666;23.324;2023-05-10T05:01:32;7.25;;;6.15;;
79460;SDS011;68929;42.666;23.324;2023-05-10T05:03:58;8.63;;;4.70;;
79460;SDS011;68929;42.666;23.324;2023-05-10T05:06:29;8.30;;;6.65;;
79460;SDS011;68929;42.666;23.324;2023-05-10T05:08:58;8.30;;;6.50;;
79460;SDS011;68929;42.666;23.324;2023-05-10T05:11:23;8.65;;;5.35;;
79460;SDS011;68929;42.666;23.324;2023-05-10T05:13:50;6.25;;;5.65;;
79460;SDS011;68929;42.666;23.324;2023-05-10T05:16:20;8.18;;;5.93;;
79460;SDS011;68929;42.666;23.324;2023-05-10T05:18:50;6.25;;;5.35;;
79460;SDS011;68929;42.666;23.324;2023-05-10T05:21:16;6.57;;;5.97;;
79460;SDS011;68929;42.666;23.324;2023-05-10T05:23:42;7.70;;;6.97;;
79460;SDS011;68929;42.666;23.324;2023-05-10T05:26:08;11.90;;;7.03;;
79460;SDS011;68929;42.666;23.324;2023-05-10T05:28:33;8.07;;;6.43;;
79460;SDS011;68929;42.666;23.324;2023-05-10T05:31:02;7.88;;;7.07;;
79460;SDS011;68929;42.666;23.324;2023-05-10T05:33:30;7.18;;;6.22;;
79460;SDS011;68929;42.666;23.324;2023-05-10T05:35:56;9.32;;;6.40;;
79460;SDS011;68929;42.666;23.324;2023-05-10T05:38:21;7.72;;;6.93;;
79460;SDS011;68929;42.666;23.324;2023-05-10T05:40:47;9.18;;;6.85;;
79460;SDS011;68929;42.666;23.324;2023-05-10T05:43:13;11.45;;;7.22;;
79460;SDS011;68929;42.666;23.324;2023-05-10T05:45:38;9.82;;;8.82;;
79460;SDS011;68929;42.666;23.324;2023-05-10T05:48:04;10.65;;;6.97;;
79460;SDS011;68929;42.666;23.324;2023-05-10T05:50:29;10.55;;;8.02;;
79460;SDS011;68929;42.666;23.324;2023-05-10T05:52:55;9.20;;;7.85;;
79460;SDS011;68929;42.666;23.324;2023-05-10T05:55:25;8.32;;;7.50;;
79460;SDS011;68929;42.666;23.324;2023-05-10T05:57:51;9.55;;;8.63;;
79460;SDS011;68929;42.666;23.324;2023-05-10T06:00:20;9.95;;;8.23;;
79460;SDS011;68929;42.666;23.324;2023-05-10T06:02:46;8.98;;;7.90;;
79460;SDS011;68929;42.666;23.324;2023-05-10T06:05:12;11.25;;;9.80;;
79460;SDS011;68929;42.666;23.324;2023-05-10T06:07:39;10.98;;;9.38;;
79460;SDS011;68929;42.666;23.324;2023-05-10T06:10:07;14.48;;;10.63;;
79460;SDS011;68929;42.666;23.324;2023-05-10T06:12:33;10.57;;;8.65;;
79460;SDS011;68929;42.666;23.324;2023-05-10T06:14:58;9.80;;;8.80;;
79460;SDS011;68929;42.666;23.324;2023-05-10T06:17:24;11.07;;;9.10;;
79460;SDS011;68929;42.666;23.324;2023-05-10T06:19:50;10.75;;;8.38;;
79460;SDS011;68929;42.666;23.324;2023-05-10T06:22:15;11.98;;;10.30;;
79460;SDS011;68929;42.666;23.324;2023-05-10T06:24:40;13.07;;;10.30;;
79460;SDS011;68929;42.666;23.324;2023-05-10T06:27:06;12.40;;;10.95;;
79460;SDS011;68929;42.666;23.324;2023-05-10T06:29:32;12.43;;;8.85;;
79460;SDS011;68929;42.666;23.324;2023-05-10T06:31:57;9.50;;;8.13;;
79460;SDS011;68929;42.666;23.324;2023-05-10T06:34:23;10.35;;;9.35;;
79460;SDS011;68929;42.666;23.324;2023-05-10T06:36:49;10.90;;;9.80;;
79460;SDS011;68929;42.666;23.324;2023-05-10T06:39:14;13.57;;;10.40;;
79460;SDS011;68929;42.666;23.324;2023-05-10T06:41:45;10.65;;;9.25;;
79460;SDS011;68929;42.666;23.324;2023-05-10T06:44:10;10.73;;;9.63;;
79460;SDS011;68929;42.666;23.324;2023-05-10T06:46:36;11.35;;;10.10;;
79460;SDS011;68929;42.666;23.324;2023-05-10T06:49:01;10.68;;;8.20;;
79460;SDS011;68929;42.666;23.324;2023-05-10T06:51:36;11.60;;;9.15;;
79460;SDS011;68929;42.666;23.324;2023-05-10T06:54:02;10.65;;;7.85;;
79460;SDS011;68929;42.666;23.324;2023-05-10T06:56:28;10.43;;;8.70;;
79460;SDS011;68929;42.666;23.324;2023-05-10T06:58:53;11.57;;;8.70;;
79460;SDS011;68929;42.666;23.324;2023-05-10T07:01:18;11.32;;;8.13;;
79460;SDS011;68929;42.666;23.324;2023-05-10T07:03:44;17.00;;;9.52;;
79460;SDS011;68929;42.666;23.324;2023-05-10T07:06:12;10.40;;;9.32;;
79460;SDS011;68929;42.666;23.324;2023-05-10T07:08:37;9.05;;;8.15;;
79460;SDS011;68929;42.666;23.324;2023-05-10T07:11:09;12.77;;;9.32;;
79460;SDS011;68929;42.666;23.324;2023-05-10T07:13:40;10.73;;;8.68;;
79460;SDS011;68929;42.666;23.324;2023-05-10T07:16:09;10.65;;;7.47;;
79460;SDS011;68929;42.666;23.324;2023-05-10T07:18:35;8.45;;;7.63;;
79460;SDS011;68929;42.666;23.324;2023-05-10T07:21:01;8.82;;;7.65;;
79460;SDS011;68929;42.666;23.324;2023-05-10T07:23:26;14.02;;;7.18;;
79460;SDS011;68929;42.666;23.324;2023-05-10T07:25:52;11.18;;;7.85;;
79460;SDS011;68929;42.666;23.324;2023-05-10T07:28:22;12.20;;;8.75;;
79460;SDS011;68929;42.666;23.324;2023-05-10T07:30:48;11.35;;;9.00;;
79460;SDS011;68929;42.666;23.324;2023-05-10T07:33:13;16.83;;;10.35;;
79460;SDS011;68929;42.666;23.324;2023-05-10T07:35:39;9.80;;;8.25;;
79460;SDS011;68929;42.666;23.324;2023-05-10T07:38:05;9.73;;;8.70;;
79460;SDS011;68929;42.666;23.324;2023-05-10T07:40:35;12.07;;;9.43;;
79460;SDS011;68929;42.666;23.324;2023-05-10T07:43:01;9.60;;;8.70;;
79460;SDS011;68929;42.666;23.324;2023-05-10T07:45:27;10.15;;;9.15;;
79460;SDS011;68929;42.666;23.324;2023-05-10T07:47:56;10.40;;;9.30;;
79460;SDS011;68929;42.666;23.324;2023-05-10T07:50:21;11.13;;;10.02;;
79460;SDS011;68929;42.666;23.324;2023-05-10T07:52:47;9.45;;;8.40;;
79460;SDS011;68929;42.666;23.324;2023-05-10T07:55:13;13.50;;;9.88;;
79460;SDS011;68929;42.666;23.324;2023-05-10T07:57:38;11.95;;;9.75;;
79460;SDS011;68929;42.666;23.324;2023-05-10T08:00:04;14.57;;;9.65;;
79460;SDS011;68929;42.666;23.324;2023-05-10T08:02:30;11.77;;;10.63;;
79460;SDS011;68929;42.666;23.324;2023-05-10T08:04:56;11.02;;;9.93;;
79460;SDS011;68929;42.666;23.324;2023-05-10T08:07:22;14.35;;;10.90;;
79460;SDS011;68929;42.666;23.324;2023-05-10T08:09:49;16.08;;;9.68;;
79460;SDS011;68929;42.666;23.324;2023-05-10T08:12:20;11.10;;;10.00;;
79460;SDS011;68929;42.666;23.324;2023-05-10T08:14:45;12.00;;;9.80;;
79460;SDS011;68929;42.666;23.324;2023-05-10T08:17:10;14.43;;;9.70;;
79460;SDS011;68929;42.666;23.324;2023-05-10T08:19:36;10.77;;;9.60;;
79460;SDS011;68929;42.666;23.324;2023-05-10T08:22:01;8.90;;;8.00;;
79460;SDS011;68929;42.666;23.324;2023-05-10T08:24:26;14.43;;;9.40;;
79460;SDS011;68929;42.666;23.324;2023-05-10T08:26:55;13.20;;;9.88;;
79460;SDS011;68929;42.666;23.324;2023-05-10T08:29:20;12.70;;;10.30;;
79460;SDS011;68929;42.666;23.324;2023-05-10T08:31:45;9.25;;;8.45;;
79460;SDS011;68929;42.666;23.324;2023-05-10T08:34:11;9.65;;;8.73;;
79460;SDS011;68929;42.666;23.324;2023-05-10T08:36:36;10.75;;;9.75;;
79460;SDS011;68929;42.666;23.324;2023-05-10T08:39:02;13.77;;;10.50;;
79460;SDS011;68929;42.666;23.324;2023-05-10T08:41:27;11.60;;;10.50;;
79460;SDS011;68929;42.666;23.324;2023-05-10T08:43:55;10.48;;;9.45;;
79460;SDS011;68929;42.666;23.324;2023-05-10T08:46:21;11.43;;;10.32;;
79460;SDS011;68929;42.666;23.324;2023-05-10T08:48:48;11.50;;;10.35;;
79460;SDS011;68929;42.666;23.324;2023-05-10T08:51:17;11.93;;;10.32;;
79460;SDS011;68929;42.666;23.324;2023-05-10T08:53:44;14.70;;;9.50;;
79460;SDS011;68929;42.666;23.324;2023-05-10T08:56:10;10.82;;;9.73;;
79460;SDS011;68929;42.666;23.324;2023-05-10T08:58:37;11.20;;;10.18;;
79460;SDS011;68929;42.666;23.324;2023-05-10T09:01:06;11.77;;;10.68;;
79460;SDS011;68929;42.666;23.324;2023-05-10T09:03:32;13.63;;;11.20;;
79460;SDS011;68929;42.666;23.324;2023-05-10T09:05:57;14.18;;;10.95;;
79460;SDS011;68929;42.666;23.324;2023-05-10T09:08:27;11.23;;;10.07;;
79460;SDS011;68929;42.666;23.324;2023-05-10T09:10:59;13.20;;;11.60;;
79460;SDS011;68929;42.666;23.324;2023-05-10T09:13:27;12.98;;;10.50;;
79460;SDS011;68929;42.666;23.324;2023-05-10T09:18:28;11.45;;;9.85;;
79460;SDS011;68929;42.666;23.324;2023-05-10T09:20:54;12.73;;;11.32;;
79460;SDS011;68929;42.666;23.324;2023-05-10T09:23:19;12.25;;;11.05;;
79460;SDS011;68929;42.666;23.324;2023-05-10T09:25:44;11.52;;;10.45;;
79460;SDS011;68929;42.666;23.324;2023-05-10T09:28:13;11.00;;;9.90;;
79460;SDS011;68929;42.666;23.324;2023-05-10T09:30:39;14.40;;;11.10;;
79460;SDS011;68929;42.666;23.324;2023-05-10T09:33:05;12.70;;;11.52;;
79460;SDS011;68929;42.666;23.324;2023-05-10T09:35:31;12.60;;;9.75;;
79460;SDS011;68929;42.666;23.324;2023-05-10T09:38:02;12.52;;;11.30;;
79460;SDS011;68929;42.666;23.324;2023-05-10T09:40:29;11.77;;;10.45;;
79460;SDS011;68929;42.666;23.324;2023-05-10T09:45:29;11.88;;;10.75;;
79460;SDS011;68929;42.666;23.324;2023-05-10T09:47:56;11.63;;;10.02;;
79460;SDS011;68929;42.666;23.324;2023-05-10T09:50:22;11.68;;;10.57;;
79460;SDS011;68929;42.666;23.324;2023-05-10T09:55:22;12.52;;;10.98;;
79460;SDS011;68929;42.666;23.324;2023-05-10T09:57:48;10.38;;;9.40;;
79460;SDS011;68929;42.666;23.324;2023-05-10T10:00:23;10.32;;;9.27;;
79460;SDS011;68929;42.666;23.324;2023-05-10T10:02:58;11.25;;;10.10;;
79460;SDS011;68929;42.666;23.324;2023-05-10T10:05:28;10.25;;;9.30;;
79460;SDS011;68929;42.666;23.324;2023-05-10T10:07:59;10.65;;;9.65;;
79460;SDS011;68929;42.666;23.324;2023-05-10T10:10:31;10.82;;;9.63;;
79460;SDS011;68929;42.666;23.324;2023-05-10T10:13:05;10.55;;;9.18;;
79460;SDS011;68929;42.666;23.324;2023-05-10T10:15:30;9.75;;;8.90;;
79460;SDS011;68929;42.666;23.324;2023-05-10T10:17:58;10.90;;;9.55;;
79460;SDS011;68929;42.666;23.324;2023-05-10T10:20:33;10.70;;;9.65;;
79460;SDS011;68929;42.666;23.324;2023-05-10T10:22:59;8.93;;;8.02;;
79460;SDS011;68929;42.666;23.324;2023-05-10T10:25:26;12.10;;;10.10;;
79460;SDS011;68929;42.666;23.324;2023-05-10T10:30:21;12.73;;;8.95;;
79460;SDS011;68929;42.666;23.324;2023-05-10T10:35:48;14.73;;;9.48;;
79460;SDS011;68929;42.666;23.324;2023-05-10T10:38:15;10.85;;;8.75;;
79460;SDS011;68929;42.666;23.324;2023-05-10T10:40:41;9.02;;;8.13;;
79460;SDS011;68929;42.666;23.324;2023-05-10T10:43:26;11.18;;;9.20;;
79460;SDS011;68929;42.666;23.324;2023-05-10T10:48:47;8.77;;;7.97;;
79460;SDS011;68929;42.666;23.324;2023-05-10T10:51:34;9.60;;;8.45;;
79460;SDS011;68929;42.666;23.324;2023-05-10T10:54:09;10.75;;;7.88;;
79460;SDS011;68929;42.666;23.324;2023-05-10T10:56:35;14.18;;;8.07;;
79460;SDS011;68929;42.666;23.324;2023-05-10T10:59:00;7.43;;;6.53;;
79460;SDS011;68929;42.666;23.324;2023-05-10T11:01:34;9.63;;;8.70;;
79460;SDS011;68929;42.666;23.324;2023-05-10T11:06:34;9.63;;;8.32;;
79460;SDS011;68929;42.666;23.324;2023-05-10T11:09:06;10.55;;;7.53;;
79460;SDS011;68929;42.666;23.324;2023-05-10T11:11:35;9.40;;;8.23;;
79460;SDS011;68929;42.666;23.324;2023-05-10T11:14:06;9.07;;;8.15;;
79460;SDS011;68929;42.666;23.324;2023-05-10T11:16:41;10.57;;;8.05;;
79460;SDS011;68929;42.666;23.324;2023-05-10T11:19:12;9.52;;;7.57;;
79460;SDS011;68929;42.666;23.324;2023-05-10T11:21:45;12.40;;;7.60;;
79460;SDS011;68929;42.666;23.324;2023-05-10T11:24:16;12.55;;;8.65;;
79460;SDS011;68929;42.666;23.324;2023-05-10T11:26:44;10.32;;;7.78;;
79460;SDS011;68929;42.666;23.324;2023-05-10T11:29:10;9.80;;;7.57;;
79460;SDS011;68929;42.666;23.324;2023-05-10T11:31:44;9.10;;;8.10;;
79460;SDS011;68929;42.666;23.324;2023-05-10T11:34:12;9.45;;;8.50;;
79460;SDS011;68929;42.666;23.324;2023-05-10T11:36:50;9.60;;;7.32;;
79460;SDS011;68929;42.666;23.324;2023-05-10T11:39:27;15.15;;;8.48;;
79460;SDS011;68929;42.666;23.324;2023-05-10T11:41:54;9.82;;;6.78;;
79460;SDS011;68929;42.666;23.324;2023-05-10T11:44:19;14.13;;;9.00;;
79460;SDS011;68929;42.666;23.324;2023-05-10T11:46:45;6.40;;;5.80;;
79460;SDS011;68929;42.666;23.324;2023-05-10T11:49:11;7.40;;;6.70;;
79460;SDS011;68929;42.666;23.324;2023-05-10T11:51:38;13.10;;;7.50;;
79460;SDS011;68929;42.666;23.324;2023-05-10T11:54:09;9.20;;;7.03;;
79460;SDS011;68929;42.666;23.324;2023-05-10T11:56:39;8.10;;;7.10;;
79460;SDS011;68929;42.666;23.324;2023-05-10T11:59:05;10.13;;;8.55;;
79460;SDS011;68929;42.666;23.324;2023-05-10T12:01:31;10.13;;;7.72;;
79460;SDS011;68929;42.666;23.324;2023-05-10T12:03:57;10.75;;;8.45;;
79460;SDS011;68929;42.666;23.324;2023-05-10T12:06:29;13.02;;;8.65;;
79460;SDS011;68929;42.666;23.324;2023-05-10T12:08:56;9.77;;;7.22;;
79460;SDS011;68929;42.666;23.324;2023-05-10T12:11:26;11.88;;;9.32;;
79460;SDS011;68929;42.666;23.324;2023-05-10T12:13:53;13.48;;;9.27;;
79460;SDS011;68929;42.666;23.324;2023-05-10T12:16:25;10.23;;;9.18;;
79460;SDS011;68929;42.666;23.324;2023-05-10T12:18:53;10.85;;;8.40;;
79460;SDS011;68929;42.666;23.324;2023-05-10T12:21:20;9.05;;;8.15;;
79460;SDS011;68929;42.666;23.324;2023-05-10T12:23:52;10.10;;;7.50;;
79460;SDS011;68929;42.666;23.324;2023-05-10T12:26:36;13.13;;;8.88;;
79460;SDS011;68929;42.666;23.324;2023-05-10T12:32:00;11.23;;;10.00;;
79460;SDS011;68929;42.666;23.324;2023-05-10T12:34:26;11.07;;;9.10;;
79460;SDS011;68929;42.666;23.324;2023-05-10T12:37:28;11.27;;;9.82;;
79460;SDS011;68929;42.666;23.324;2023-05-10T12:39:59;9.33;;;8.43;;
79460;SDS011;68929;42.666;23.324;2023-05-10T12:42:24;10.70;;;8.80;;
79460;SDS011;68929;42.666;23.324;2023-05-10T12:44:57;11.18;;;8.85;;
79460;SDS011;68929;42.666;23.324;2023-05-10T12:47:23;11.15;;;9.77;;
79460;SDS011;68929;42.666;23.324;2023-05-10T12:49:48;12.57;;;8.27;;
79460;SDS011;68929;42.666;23.324;2023-05-10T12:52:14;10.45;;;9.38;;
79460;SDS011;68929;42.666;23.324;2023-05-10T12:54:42;11.73;;;9.57;;
79460;SDS011;68929;42.666;23.324;2023-05-10T12:57:09;10.65;;;9.27;;
79460;SDS011;68929;42.666;23.324;2023-05-10T12:59:40;13.15;;;9.68;;
79460;SDS011;68929;42.666;23.324;2023-05-10T13:02:11;10.07;;;8.77;;
79460;SDS011;68929;42.666;23.324;2023-05-10T13:04:36;12.88;;;8.23;;
79460;SDS011;68929;42.666;23.324;2023-05-10T13:07:10;12.65;;;9.18;;
79460;SDS011;68929;42.666;23.324;2023-05-10T13:09:46;9.35;;;8.45;;
79460;SDS011;68929;42.666;23.324;2023-05-10T13:12:20;9.38;;;8.10;;
79460;SDS011;68929;42.666;23.324;2023-05-10T13:14:46;9.27;;;8.38;;
79460;SDS011;68929;42.666;23.324;2023-05-10T13:17:11;8.93;;;8.13;;
79460;SDS011;68929;42.666;23.324;2023-05-10T13:19:38;11.00;;;8.52;;
79460;SDS011;68929;42.666;23.324;2023-05-10T13:22:04;11.57;;;8.93;;
79460;SDS011;68929;42.666;23.324;2023-05-10T13:24:29;8.85;;;8.05;;
79460;SDS011;68929;42.666;23.324;2023-05-10T13:26:55;9.93;;;8.32;;
79460;SDS011;68929;42.666;23.324;2023-05-10T13:29:20;9.45;;;8.57;;
79460;SDS011;68929;42.666;23.324;2023-05-10T13:31:50;9.70;;;8.45;;
79460;SDS011;68929;42.666;23.324;2023-05-10T13:34:15;9.20;;;7.32;;
79460;SDS011;68929;42.666;23.324;2023-05-10T13:36:41;12.13;;;9.30;;
79460;SDS011;68929;42.666;23.324;2023-05-10T13:39:11;12.00;;;8.18;;
79460;SDS011;68929;42.666;23.324;2023-05-10T13:41:37;11.02;;;8.95;;
79460;SDS011;68929;42.666;23.324;2023-05-10T13:44:02;12.50;;;9.75;;
79460;SDS011;68929;42.666;23.324;2023-05-10T13:46:28;12.07;;;9.30;;
79460;SDS011;68929;42.666;23.324;2023-05-10T13:48:55;8.82;;;7.95;;
79460;SDS011;68929;42.666;23.324;2023-05-10T13:51:24;10.43;;;9.43;;
79460;SDS011;68929;42.666;23.324;2023-05-10T13:53:50;8.60;;;7.90;;
79460;SDS011;68929;42.666;23.324;2023-05-10T13:56:15;10.85;;;8.98;;
79460;SDS011;68929;42.666;23.324;2023-05-10T13:58:45;8.45;;;7.25;;
79460;SDS011;68929;42.666;23.324;2023-05-10T14:01:11;11.35;;;9.25;;
79460;SDS011;68929;42.666;23.324;2023-05-10T14:03:37;9.25;;;8.27;;
79460;SDS011;68929;42.666;23.324;2023-05-10T14:06:02;11.48;;;10.25;;
79460;SDS011;68929;42.666;23.324;2023-05-10T14:08:28;8.55;;;7.75;;
79460;SDS011;68929;42.666;23.324;2023-05-10T14:10:53;13.05;;;8.40;;
79460;SDS011;68929;42.666;23.324;2023-05-10T14:13:21;12.38;;;7.70;;
79460;SDS011;68929;42.666;23.324;2023-05-10T14:15:46;10.30;;;8.25;;
79460;SDS011;68929;42.666;23.324;2023-05-10T14:18:16;15.05;;;10.45;;
79460;SDS011;68929;42.666;23.324;2023-05-10T14:20:47;10.13;;;8.23;;
79460;SDS011;68929;42.666;23.324;2023-05-10T14:23:14;11.25;;;8.23;;
79460;SDS011;68929;42.666;23.324;2023-05-10T14:25:39;9.77;;;8.60;;
79460;SDS011;68929;42.666;23.324;2023-05-10T14:28:05;11.63;;;9.32;;
79460;SDS011;68929;42.666;23.324;2023-05-10T14:30:31;12.05;;;10.48;;
79460;SDS011;68929;42.666;23.324;2023-05-10T14:32:56;15.00;;;10.13;;
79460;SDS011;68929;42.666;23.324;2023-05-10T14:35:27;11.90;;;9.23;;
79460;SDS011;68929;42.666;23.324;2023-05-10T14:37:56;12.82;;;9.02;;
79460;SDS011;68929;42.666;23.324;2023-05-10T14:40:22;12.13;;;9.35;;
79460;SDS011;68929;42.666;23.324;2023-05-10T14:42:48;9.48;;;8.43;;
79460;SDS011;68929;42.666;23.324;2023-05-10T14:45:15;8.07;;;7.22;;
79460;SDS011;68929;42.666;23.324;2023-05-10T14:47:40;14.40;;;8.95;;
79460;SDS011;68929;42.666;23.324;2023-05-10T14:50:05;8.70;;;7.88;;
79460;SDS011;68929;42.666;23.324;2023-05-10T14:52:34;8.80;;;7.90;;
79460;SDS011;68929;42.666;23.324;2023-05-10T14:54:59;8.73;;;7.82;;
79460;SDS011;68929;42.666;23.324;2023-05-10T14:57:29;14.35;;;9.10;;
79460;SDS011;68929;42.666;23.324;2023-05-10T14:59:55;8.98;;;7.55;;
79460;SDS011;68929;42.666;23.324;2023-05-10T15:02:21;9.65;;;8.65;;
79460;SDS011;68929;42.666;23.324;2023-05-10T15:04:47;10.20;;;8.68;;
79460;SDS011;68929;42.666;23.324;2023-05-10T15:07:12;13.65;;;8.90;;
79460;SDS011;68929;42.666;23.324;2023-05-10T15:09:40;10.35;;;8.35;;
79460;SDS011;68929;42.666;23.324;2023-05-10T15:12:06;11.20;;;8.85;;